Fruitland, Texas
Current Conditions -  °F | °C
As of 2:35 PM on Tuesday 25 Nov 2014 (Local Time) from K0F2 Reporting Station
Clear Clear  
Wind Chill: 56°   Ceiling: Unl
Heat Index: 56°   Visibility: 10mi
Dew Point: 26°   Wind: 6mph
Humidity: 31%   Direction: 300°WNW
Pressure: 30.18"   Gusts: NA
Location:  33.5529°N, 97.8448°W
Report Text: K0F2 252035Z AUTO 30005KT 10SM CLR 14/M04 A3018 RMK AO2 T01351036
Loading
Personal Weather Stations






























Interactive Weather Map New forecast layout! Learn more

10-Day Weather Forecast

Advertisements
Track Severe Weather on mobile